AUA57MP LOWW-LIRN
Flight info
| Callsign | AUA57MP |
|---|---|
| Flight time | 1h 12m |
| Altitude | 36000 |
| Route | STEIN DCT NOHAT DCT NEKIN DCT ELGUS/N0449F370 DCT SUXUB DCT ERIKA |
| Aircraft | A320/M-SDE3FGHIRWY/LB1 |
Departure
| Time | 2026-04-21 14:26 |
|---|---|
| Airport | Vienna International Airport (LOWW) |
Arrival
| Time | 2026-04-21 15:39 |
|---|---|
| Airport | Naples International Airport (LIRN) |
| Time | Latitude | Longitude | Altitude | Speed | Heading |
|---|---|---|---|---|---|
| 2026-04-21 13:54 | 48.11845 | 16.56931 | 608 ft | 0 kts | 206° |
| 2026-04-21 14:18 | 48.11861 | 16.56943 | 624 ft | 4 kts | 201° |
| 2026-04-21 14:18 | 48.11887 | 16.56955 | 609 ft | 4 kts | 187° |
| 2026-04-21 14:18 | 48.11912 | 16.56952 | 619 ft | 4 kts | 147° |
| 2026-04-21 14:18 | 48.11921 | 16.56940 | 612 ft | 0 kts | 116° |
| 2026-04-21 14:21 | 48.11913 | 16.56963 | 623 ft | 4 kts | 116° |
| 2026-04-21 14:21 | 48.11899 | 16.57008 | 617 ft | 4 kts | 116° |
| 2026-04-21 14:21 | 48.11883 | 16.57056 | 620 ft | 9 kts | 116° |
| 2026-04-21 14:22 | 48.11856 | 16.57149 | 614 ft | 9 kts | 101° |
| 2026-04-21 14:22 | 48.11845 | 16.57241 | 618 ft | 9 kts | 112° |
| 2026-04-21 14:22 | 48.11818 | 16.57321 | 611 ft | 10 kts | 122° |
| 2026-04-21 14:22 | 48.11740 | 16.57374 | 616 ft | 13 kts | 164° |
| 2026-04-21 14:23 | 48.11653 | 16.57411 | 616 ft | 13 kts | 164° |
| 2026-04-21 14:23 | 48.11569 | 16.57447 | 611 ft | 12 kts | 164° |
| 2026-04-21 14:23 | 48.11490 | 16.57456 | 609 ft | 11 kts | 197° |
| 2026-04-21 14:23 | 48.11419 | 16.57408 | 615 ft | 11 kts | 205° |
| 2026-04-21 14:24 | 48.11353 | 16.57360 | 612 ft | 10 kts | 206° |
| 2026-04-21 14:24 | 48.11289 | 16.57314 | 622 ft | 10 kts | 206° |
| 2026-04-21 14:24 | 48.11229 | 16.57270 | 621 ft | 9 kts | 206° |
| 2026-04-21 14:24 | 48.11171 | 16.57229 | 613 ft | 9 kts | 206° |
| 2026-04-21 14:25 | 48.11116 | 16.57189 | 615 ft | 9 kts | 206° |
| 2026-04-21 14:25 | 48.11065 | 16.57152 | 618 ft | 6 kts | 208° |
| 2026-04-21 14:25 | 48.11052 | 16.57117 | 611 ft | 3 kts | 267° |
| 2026-04-21 14:25 | 48.11058 | 16.57099 | 611 ft | 2 kts | 297° |
| 2026-04-21 14:26 | 48.11110 | 16.56936 | 621 ft | 49 kts | 295° |
| 2026-04-21 14:26 | 48.11358 | 16.56176 | 618 ft | 111 kts | 295° |
| 2026-04-21 14:26 | 48.11772 | 16.54906 | 631 ft | 156 kts | 298° |
| 2026-04-21 14:26 | 48.12203 | 16.53448 | 1289 ft | 156 kts | 282° |
| 2026-04-21 14:27 | 48.11983 | 16.51821 | 1923 ft | 173 kts | 243° |
| 2026-04-21 14:27 | 48.11017 | 16.50495 | 2195 ft | 203 kts | 217° |
| 2026-04-21 14:27 | 48.09792 | 16.49255 | 2565 ft | 223 kts | 218° |
| 2026-04-21 14:27 | 48.08364 | 16.48148 | 3149 ft | 239 kts | 200° |
| 2026-04-21 14:28 | 48.06706 | 16.47601 | 3922 ft | 247 kts | 184° |
| 2026-04-21 14:28 | 48.04987 | 16.47668 | 4804 ft | 248 kts | 172° |
| 2026-04-21 14:28 | 48.03259 | 16.47993 | 5638 ft | 252 kts | 171° |
| 2026-04-21 14:28 | 48.01513 | 16.48331 | 6525 ft | 254 kts | 171° |
| 2026-04-21 14:29 | 47.99752 | 16.48687 | 7337 ft | 257 kts | 171° |
| 2026-04-21 14:29 | 47.97959 | 16.49053 | 8133 ft | 262 kts | 171° |
| 2026-04-21 14:29 | 47.96145 | 16.49412 | 8970 ft | 266 kts | 171° |
| 2026-04-21 14:29 | 47.94226 | 16.49794 | 9385 ft | 289 kts | 172° |
| 2026-04-21 14:30 | 47.92197 | 16.50192 | 10098 ft | 297 kts | 172° |
| 2026-04-21 14:30 | 47.90086 | 16.50615 | 10528 ft | 317 kts | 172° |
| 2026-04-21 14:30 | 47.87817 | 16.51062 | 10817 ft | 340 kts | 172° |
| 2026-04-21 14:30 | 47.85389 | 16.51546 | 11077 ft | 362 kts | 172° |
| 2026-04-21 14:31 | 47.82860 | 16.52059 | 11684 ft | 370 kts | 172° |
| 2026-04-21 14:31 | 47.80335 | 16.52558 | 12520 ft | 371 kts | 173° |
| 2026-04-21 14:31 | 47.77738 | 16.53062 | 13387 ft | 373 kts | 173° |
| 2026-04-21 14:31 | 47.75155 | 16.53581 | 14084 ft | 377 kts | 173° |
| 2026-04-21 14:32 | 47.72545 | 16.54109 | 14797 ft | 379 kts | 173° |
| 2026-04-21 14:32 | 47.69919 | 16.54627 | 15514 ft | 382 kts | 173° |
| 2026-04-21 14:32 | 47.67270 | 16.55145 | 16119 ft | 387 kts | 174° |
| 2026-04-21 14:32 | 47.64582 | 16.55686 | 16686 ft | 393 kts | 174° |
| 2026-04-21 14:33 | 47.61892 | 16.56214 | 17306 ft | 396 kts | 174° |
| 2026-04-21 14:33 | 47.59150 | 16.56742 | 17935 ft | 400 kts | 175° |
| 2026-04-21 14:33 | 47.56376 | 16.57295 | 18479 ft | 405 kts | 174° |
| 2026-04-21 14:33 | 47.53570 | 16.57851 | 19046 ft | 408 kts | 175° |
| 2026-04-21 14:34 | 47.50750 | 16.58403 | 19588 ft | 410 kts | 174° |
| 2026-04-21 14:34 | 47.47911 | 16.58962 | 20136 ft | 413 kts | 175° |
| 2026-04-21 14:34 | 47.45051 | 16.59514 | 20674 ft | 416 kts | 175° |
| 2026-04-21 14:34 | 47.42180 | 16.59990 | 21198 ft | 417 kts | 179° |
| 2026-04-21 14:35 | 47.39266 | 16.60143 | 21724 ft | 419 kts | 181° |
| 2026-04-21 14:35 | 47.36340 | 16.60254 | 22196 ft | 423 kts | 181° |
| 2026-04-21 14:35 | 47.33390 | 16.60382 | 22695 ft | 426 kts | 181° |
| 2026-04-21 14:35 | 47.30418 | 16.60511 | 23161 ft | 429 kts | 181° |
| 2026-04-21 14:36 | 47.27425 | 16.60641 | 23664 ft | 431 kts | 181° |
| 2026-04-21 14:36 | 47.24420 | 16.60769 | 24070 ft | 434 kts | 181° |
| 2026-04-21 14:36 | 47.21392 | 16.60898 | 24485 ft | 436 kts | 181° |
| 2026-04-21 14:36 | 47.18355 | 16.61030 | 24951 ft | 437 kts | 181° |
| 2026-04-21 14:37 | 47.15312 | 16.61164 | 25352 ft | 439 kts | 180° |
| 2026-04-21 14:37 | 47.12250 | 16.61296 | 25747 ft | 442 kts | 181° |
| 2026-04-21 14:37 | 47.09167 | 16.61430 | 26128 ft | 444 kts | 181° |
| 2026-04-21 14:37 | 47.06065 | 16.61565 | 26505 ft | 447 kts | 181° |
| 2026-04-21 14:38 | 47.02950 | 16.61699 | 26877 ft | 450 kts | 181° |
| 2026-04-21 14:38 | 46.99813 | 16.61835 | 27226 ft | 452 kts | 181° |
| 2026-04-21 14:38 | 46.96660 | 16.61964 | 27572 ft | 455 kts | 181° |
| 2026-04-21 14:38 | 46.93485 | 16.62103 | 27896 ft | 458 kts | 181° |
| 2026-04-21 14:39 | 46.90290 | 16.62241 | 28225 ft | 460 kts | 181° |
| 2026-04-21 14:39 | 46.87082 | 16.62382 | 28542 ft | 463 kts | 182° |
| 2026-04-21 14:39 | 46.83857 | 16.62523 | 28858 ft | 466 kts | 182° |
| 2026-04-21 14:39 | 46.80601 | 16.62739 | 29173 ft | 470 kts | 178° |
| 2026-04-21 14:40 | 46.77349 | 16.63324 | 29580 ft | 472 kts | 176° |
| 2026-04-21 14:40 | 46.74091 | 16.63979 | 29944 ft | 473 kts | 177° |
| 2026-04-21 14:40 | 46.70825 | 16.64613 | 30313 ft | 473 kts | 177° |
| 2026-04-21 14:40 | 46.67565 | 16.65241 | 30659 ft | 474 kts | 177° |
| 2026-04-21 14:41 | 46.64296 | 16.65865 | 31010 ft | 473 kts | 178° |
| 2026-04-21 14:41 | 46.61080 | 16.66473 | 31353 ft | 474 kts | 177° |
| 2026-04-21 14:41 | 46.57820 | 16.67093 | 31694 ft | 474 kts | 178° |
| 2026-04-21 14:41 | 46.54531 | 16.67714 | 31998 ft | 474 kts | 178° |
| 2026-04-21 14:42 | 46.51262 | 16.68333 | 32331 ft | 475 kts | 178° |
| 2026-04-21 14:42 | 46.47982 | 16.68957 | 32706 ft | 475 kts | 178° |
| 2026-04-21 14:42 | 46.44704 | 16.69462 | 33068 ft | 471 kts | 184° |
| 2026-04-21 14:42 | 46.41462 | 16.69320 | 33414 ft | 464 kts | 192° |
| 2026-04-21 14:43 | 46.38317 | 16.68506 | 33801 ft | 454 kts | 202° |
| 2026-04-21 14:43 | 46.35384 | 16.66979 | 34126 ft | 446 kts | 211° |
| 2026-04-21 14:43 | 46.32568 | 16.65140 | 34495 ft | 442 kts | 211° |
| 2026-04-21 14:43 | 46.29758 | 16.63320 | 34815 ft | 442 kts | 211° |
| 2026-04-21 14:44 | 46.26948 | 16.61517 | 35106 ft | 442 kts | 210° |
| 2026-04-21 14:44 | 46.24131 | 16.59718 | 35384 ft | 443 kts | 210° |
| 2026-04-21 14:44 | 46.21313 | 16.57929 | 35659 ft | 443 kts | 210° |
| 2026-04-21 14:44 | 46.18491 | 16.56140 | 35919 ft | 443 kts | 210° |
| 2026-04-21 14:45 | 46.15664 | 16.54339 | 36033 ft | 445 kts | 210° |
| 2026-04-21 14:45 | 46.09993 | 16.50740 | 36061 ft | 445 kts | 210° |
| 2026-04-21 14:46 | 46.04318 | 16.47145 | 36064 ft | 445 kts | 210° |
| 2026-04-21 14:46 | 45.98652 | 16.43565 | 36048 ft | 445 kts | 210° |
| 2026-04-21 14:47 | 45.92986 | 16.40006 | 36043 ft | 445 kts | 210° |
| 2026-04-21 14:47 | 45.87311 | 16.36417 | 36052 ft | 445 kts | 210° |
| 2026-04-21 14:48 | 45.81672 | 16.32891 | 36051 ft | 445 kts | 210° |
| 2026-04-21 14:48 | 45.76001 | 16.29343 | 36031 ft | 444 kts | 211° |
| 2026-04-21 14:49 | 45.70334 | 16.25794 | 36036 ft | 444 kts | 211° |
| 2026-04-21 14:49 | 45.64669 | 16.22260 | 36029 ft | 445 kts | 210° |
| 2026-04-21 14:50 | 45.59951 | 16.19337 | 36034 ft | 444 kts | 211° |
| 2026-04-21 14:50 | 45.53334 | 16.15212 | 36033 ft | 444 kts | 211° |
| 2026-04-21 14:51 | 45.47660 | 16.11706 | 36033 ft | 444 kts | 211° |
| 2026-04-21 14:51 | 45.41993 | 16.08194 | 35998 ft | 444 kts | 211° |
| 2026-04-21 14:52 | 45.36322 | 16.04714 | 36007 ft | 444 kts | 211° |
| 2026-04-21 14:52 | 45.30652 | 16.01223 | 36021 ft | 443 kts | 211° |
| 2026-04-21 14:53 | 45.25023 | 15.97771 | 36028 ft | 443 kts | 211° |
| 2026-04-21 14:53 | 45.19363 | 15.94312 | 36008 ft | 443 kts | 211° |
| 2026-04-21 14:54 | 45.13716 | 15.90835 | 36020 ft | 442 kts | 211° |
| 2026-04-21 14:54 | 45.08063 | 15.87396 | 36029 ft | 442 kts | 211° |
| 2026-04-21 14:55 | 45.02414 | 15.83982 | 36010 ft | 441 kts | 211° |
| 2026-04-21 14:55 | 44.96782 | 15.80550 | 36012 ft | 441 kts | 211° |
| 2026-04-21 14:56 | 44.92105 | 15.77693 | 36013 ft | 441 kts | 211° |
| 2026-04-21 14:56 | 44.86464 | 15.74291 | 35987 ft | 440 kts | 211° |
| 2026-04-21 14:57 | 44.80830 | 15.70891 | 35992 ft | 441 kts | 211° |
| 2026-04-21 14:57 | 44.75190 | 15.67509 | 35986 ft | 440 kts | 211° |
| 2026-04-21 14:58 | 44.69562 | 15.64118 | 35990 ft | 441 kts | 211° |
| 2026-04-21 14:58 | 44.63914 | 15.60742 | 35953 ft | 441 kts | 210° |
| 2026-04-21 14:59 | 44.58265 | 15.57361 | 35953 ft | 441 kts | 211° |
| 2026-04-21 14:59 | 44.52616 | 15.53982 | 35948 ft | 442 kts | 211° |
| 2026-04-21 15:00 | 44.46998 | 15.50640 | 35927 ft | 442 kts | 211° |
| 2026-04-21 15:00 | 44.41337 | 15.47272 | 35936 ft | 442 kts | 211° |
| 2026-04-21 15:01 | 44.35665 | 15.43914 | 35934 ft | 443 kts | 211° |
| 2026-04-21 15:01 | 44.29995 | 15.40546 | 35906 ft | 443 kts | 211° |
| 2026-04-21 15:02 | 44.24307 | 15.37200 | 35942 ft | 444 kts | 210° |
| 2026-04-21 15:02 | 44.18623 | 15.33848 | 35953 ft | 444 kts | 211° |
| 2026-04-21 15:03 | 44.12940 | 15.30481 | 35952 ft | 444 kts | 211° |
| 2026-04-21 15:03 | 44.07237 | 15.27140 | 35961 ft | 445 kts | 210° |
| 2026-04-21 15:04 | 44.01532 | 15.23791 | 35960 ft | 445 kts | 210° |
| 2026-04-21 15:04 | 43.95821 | 15.20470 | 35936 ft | 445 kts | 210° |
| 2026-04-21 15:05 | 43.90118 | 15.17128 | 35944 ft | 445 kts | 210° |
| 2026-04-21 15:05 | 43.81562 | 15.12148 | 35954 ft | 445 kts | 210° |
| 2026-04-21 15:06 | 43.75856 | 15.08841 | 35941 ft | 445 kts | 210° |
| 2026-04-21 15:06 | 43.70147 | 15.05527 | 35961 ft | 445 kts | 210° |
| 2026-04-21 15:07 | 43.64436 | 15.02231 | 35955 ft | 445 kts | 210° |
| 2026-04-21 15:07 | 43.58760 | 14.98955 | 35934 ft | 445 kts | 210° |
| 2026-04-21 15:08 | 43.53041 | 14.95686 | 35946 ft | 446 kts | 209° |
| 2026-04-21 15:08 | 43.47262 | 14.92549 | 35950 ft | 446 kts | 209° |
| 2026-04-21 15:09 | 43.41499 | 14.89401 | 35929 ft | 446 kts | 208° |
| 2026-04-21 15:09 | 43.35730 | 14.86259 | 35935 ft | 446 kts | 208° |
| 2026-04-21 15:10 | 43.29956 | 14.83123 | 35946 ft | 446 kts | 208° |
| 2026-04-21 15:10 | 43.24183 | 14.79995 | 35931 ft | 446 kts | 208° |
| 2026-04-21 15:11 | 43.18416 | 14.76866 | 35939 ft | 446 kts | 208° |
| 2026-04-21 15:11 | 43.12635 | 14.73741 | 35944 ft | 446 kts | 208° |
| 2026-04-21 15:12 | 43.06850 | 14.70626 | 35923 ft | 447 kts | 208° |
| 2026-04-21 15:12 | 43.01073 | 14.67512 | 35938 ft | 447 kts | 208° |
| 2026-04-21 15:13 | 42.95282 | 14.64407 | 35947 ft | 447 kts | 208° |
| 2026-04-21 15:13 | 42.89499 | 14.61305 | 35956 ft | 446 kts | 208° |
| 2026-04-21 15:14 | 42.83714 | 14.58218 | 35943 ft | 446 kts | 208° |
| 2026-04-21 15:14 | 42.77945 | 14.55125 | 35957 ft | 446 kts | 208° |
| 2026-04-21 15:15 | 42.72169 | 14.52047 | 35963 ft | 446 kts | 208° |
| 2026-04-21 15:15 | 42.66393 | 14.48981 | 35956 ft | 445 kts | 207° |
| 2026-04-21 15:16 | 42.60660 | 14.45938 | 35976 ft | 445 kts | 208° |
| 2026-04-21 15:16 | 42.54899 | 14.42884 | 35984 ft | 444 kts | 208° |
| 2026-04-21 15:17 | 42.49138 | 14.39850 | 35973 ft | 444 kts | 208° |
| 2026-04-21 15:17 | 42.43381 | 14.36805 | 35987 ft | 444 kts | 208° |
| 2026-04-21 15:18 | 42.37625 | 14.33767 | 35993 ft | 444 kts | 207° |
| 2026-04-21 15:18 | 42.31857 | 14.30739 | 35974 ft | 444 kts | 208° |
| 2026-04-21 15:19 | 42.26098 | 14.27720 | 35984 ft | 444 kts | 208° |
| 2026-04-21 15:19 | 42.20339 | 14.24705 | 35981 ft | 443 kts | 208° |
| 2026-04-21 15:20 | 42.14602 | 14.21716 | 35309 ft | 443 kts | 208° |
| 2026-04-21 15:20 | 42.11692 | 14.20183 | 34198 ft | 453 kts | 208° |
| 2026-04-21 15:20 | 42.08730 | 14.18644 | 33107 ft | 460 kts | 207° |
| 2026-04-21 15:21 | 42.05772 | 14.17111 | 32082 ft | 462 kts | 208° |
| 2026-04-21 15:21 | 42.02723 | 14.15528 | 30904 ft | 466 kts | 208° |
| 2026-04-21 15:21 | 41.99740 | 14.13974 | 29868 ft | 465 kts | 208° |
| 2026-04-21 15:21 | 41.96725 | 14.12413 | 28851 ft | 464 kts | 208° |
| 2026-04-21 15:22 | 41.93727 | 14.10859 | 28089 ft | 460 kts | 207° |
| 2026-04-21 15:22 | 41.90761 | 14.09328 | 27420 ft | 453 kts | 207° |
| 2026-04-21 15:22 | 41.87766 | 14.08015 | 26724 ft | 454 kts | 200° |
| 2026-04-21 15:22 | 41.84652 | 14.07264 | 26027 ft | 456 kts | 194° |
| 2026-04-21 15:23 | 41.81511 | 14.06691 | 25286 ft | 454 kts | 194° |
| 2026-04-21 15:23 | 41.78383 | 14.06120 | 24575 ft | 453 kts | 194° |
| 2026-04-21 15:23 | 41.75268 | 14.05549 | 23853 ft | 450 kts | 194° |
| 2026-04-21 15:23 | 41.72181 | 14.04966 | 23087 ft | 448 kts | 194° |
| 2026-04-21 15:24 | 41.69109 | 14.04406 | 22488 ft | 443 kts | 192° |
| 2026-04-21 15:24 | 41.66030 | 14.04360 | 21993 ft | 445 kts | 180° |
| 2026-04-21 15:24 | 41.62993 | 14.05238 | 21404 ft | 450 kts | 165° |
| 2026-04-21 15:24 | 41.60169 | 14.07051 | 20834 ft | 453 kts | 150° |
| 2026-04-21 15:25 | 41.57688 | 14.09697 | 19913 ft | 463 kts | 136° |
| 2026-04-21 15:25 | 41.55511 | 14.12854 | 19215 ft | 462 kts | 134° |
| 2026-04-21 15:25 | 41.53307 | 14.15935 | 18614 ft | 456 kts | 141° |
| 2026-04-21 15:25 | 41.50884 | 14.18618 | 18017 ft | 450 kts | 144° |
| 2026-04-21 15:26 | 41.48451 | 14.21209 | 17410 ft | 445 kts | 144° |
| 2026-04-21 15:26 | 41.46045 | 14.23779 | 16596 ft | 445 kts | 144° |
| 2026-04-21 15:26 | 41.43610 | 14.26389 | 15698 ft | 449 kts | 144° |
| 2026-04-21 15:26 | 41.41193 | 14.28993 | 15048 ft | 445 kts | 143° |
| 2026-04-21 15:27 | 41.38799 | 14.31558 | 14450 ft | 439 kts | 144° |
| 2026-04-21 15:27 | 41.36429 | 14.34087 | 13839 ft | 434 kts | 144° |
| 2026-04-21 15:27 | 41.34085 | 14.36589 | 13171 ft | 430 kts | 143° |
| 2026-04-21 15:27 | 41.31774 | 14.39071 | 12518 ft | 425 kts | 143° |
| 2026-04-21 15:28 | 41.29481 | 14.41516 | 11884 ft | 420 kts | 143° |
| 2026-04-21 15:28 | 41.27217 | 14.43927 | 11424 ft | 411 kts | 143° |
| 2026-04-21 15:28 | 41.25036 | 14.46255 | 11287 ft | 394 kts | 143° |
| 2026-04-21 15:28 | 41.22942 | 14.48482 | 11158 ft | 378 kts | 144° |
| 2026-04-21 15:29 | 41.20927 | 14.50627 | 10969 ft | 365 kts | 144° |
| 2026-04-21 15:29 | 41.18996 | 14.52677 | 10833 ft | 343 kts | 144° |
| 2026-04-21 15:29 | 41.17199 | 14.54593 | 10710 ft | 321 kts | 144° |
| 2026-04-21 15:29 | 41.15507 | 14.56387 | 10533 ft | 302 kts | 144° |
| 2026-04-21 15:30 | 41.13914 | 14.58069 | 10394 ft | 284 kts | 144° |
| 2026-04-21 15:30 | 41.12410 | 14.59663 | 10129 ft | 272 kts | 144° |
| 2026-04-21 15:30 | 41.10940 | 14.61215 | 9681 ft | 268 kts | 144° |
| 2026-04-21 15:30 | 41.09490 | 14.62745 | 9181 ft | 264 kts | 145° |
| 2026-04-21 15:31 | 41.08060 | 14.64245 | 8616 ft | 260 kts | 150° |
| 2026-04-21 15:31 | 41.06469 | 14.64993 | 8398 ft | 232 kts | 188° |
| 2026-04-21 15:31 | 41.05067 | 14.64341 | 8173 ft | 204 kts | 230° |
| 2026-04-21 15:31 | 41.04301 | 14.62842 | 7792 ft | 197 kts | 244° |
| 2026-04-21 15:32 | 41.03611 | 14.61258 | 7380 ft | 199 kts | 243° |
| 2026-04-21 15:32 | 41.02905 | 14.59683 | 7027 ft | 197 kts | 243° |
| 2026-04-21 15:32 | 41.02232 | 14.58208 | 6696 ft | 183 kts | 242° |
| 2026-04-21 15:32 | 41.01575 | 14.56776 | 6153 ft | 180 kts | 242° |
| 2026-04-21 15:33 | 41.00921 | 14.55362 | 5582 ft | 181 kts | 241° |
| 2026-04-21 15:33 | 41.00263 | 14.53942 | 5027 ft | 180 kts | 240° |
| 2026-04-21 15:33 | 40.99620 | 14.52559 | 4582 ft | 175 kts | 240° |
| 2026-04-21 15:33 | 40.99000 | 14.51228 | 4260 ft | 165 kts | 240° |
| 2026-04-21 15:34 | 40.98410 | 14.49967 | 4016 ft | 158 kts | 240° |
| 2026-04-21 15:34 | 40.97849 | 14.48768 | 3790 ft | 149 kts | 240° |
| 2026-04-21 15:34 | 40.97317 | 14.47631 | 3568 ft | 142 kts | 239° |
| 2026-04-21 15:34 | 40.96808 | 14.46545 | 3380 ft | 137 kts | 239° |
| 2026-04-21 15:35 | 40.96308 | 14.45476 | 3185 ft | 136 kts | 239° |
| 2026-04-21 15:35 | 40.95811 | 14.44416 | 2981 ft | 136 kts | 239° |
| 2026-04-21 15:35 | 40.95308 | 14.43343 | 2775 ft | 138 kts | 238° |
| 2026-04-21 15:35 | 40.94807 | 14.42275 | 2569 ft | 136 kts | 238° |
| 2026-04-21 15:36 | 40.94312 | 14.41221 | 2374 ft | 134 kts | 239° |
| 2026-04-21 15:36 | 40.93817 | 14.40165 | 2168 ft | 136 kts | 238° |
| 2026-04-21 15:36 | 40.93324 | 14.39115 | 1983 ft | 135 kts | 239° |
| 2026-04-21 15:36 | 40.92821 | 14.38046 | 1775 ft | 136 kts | 238° |
| 2026-04-21 15:37 | 40.92323 | 14.36987 | 1560 ft | 137 kts | 238° |
| 2026-04-21 15:37 | 40.91822 | 14.35911 | 1370 ft | 139 kts | 238° |
| 2026-04-21 15:37 | 40.91311 | 14.34822 | 1162 ft | 139 kts | 237° |
| 2026-04-21 15:37 | 40.90800 | 14.33740 | 954 ft | 138 kts | 236° |
| 2026-04-21 15:38 | 40.90297 | 14.32658 | 739 ft | 136 kts | 236° |
| 2026-04-21 15:38 | 40.89798 | 14.31604 | 530 ft | 135 kts | 236° |
| 2026-04-21 15:38 | 40.89314 | 14.30580 | 320 ft | 131 kts | 234° |
| 2026-04-21 15:38 | 40.88847 | 14.29595 | 255 ft | 114 kts | 238° |
| 2026-04-21 15:39 | 40.88570 | 14.29005 | 269 ft | 32 kts | 238° |
| 2026-04-21 15:39 | 40.88476 | 14.28809 | 274 ft | 22 kts | 237° |
| 2026-04-21 15:39 | 40.88395 | 14.28639 | 278 ft | 22 kts | 239° |
| 2026-04-21 15:39 | 40.88300 | 14.28486 | 285 ft | 22 kts | 220° |
| 2026-04-21 15:40 | 40.88199 | 14.28400 | 284 ft | 13 kts | 211° |
| 2026-04-21 15:40 | 40.88123 | 14.28346 | 286 ft | 9 kts | 208° |
| 2026-04-21 15:40 | 40.88068 | 14.28327 | 287 ft | 8 kts | 149° |
| 2026-04-21 15:40 | 40.88057 | 14.28392 | 287 ft | 8 kts | 96° |
| 2026-04-21 15:41 | 40.88050 | 14.28468 | 285 ft | 9 kts | 98° |
| 2026-04-21 15:41 | 40.88019 | 14.28533 | 288 ft | 9 kts | 166° |
| 2026-04-21 15:41 | 40.87963 | 14.28487 | 286 ft | 10 kts | 218° |
| 2026-04-21 15:41 | 40.87938 | 14.28418 | 288 ft | 8 kts | 274° |
| 2026-04-21 15:42 | 40.87940 | 14.28365 | 294 ft | 4 kts | 258° |
| 2026-04-21 15:42 | 40.87929 | 14.28353 | 292 ft | 3 kts | 209° |
| 2026-04-21 15:42 | 40.87898 | 14.28346 | 290 ft | 5 kts | 187° |
| 2026-04-21 15:42 | 40.87875 | 14.28342 | 290 ft | 1 kts | 187° |
| 2026-04-21 15:43 | 40.87874 | 14.28342 | 290 ft | 0 kts | 187° |